Time;durP1;ratioP1;P1;durP2;ratioP2;P2;SDS_P1;SDS_P2;PMS_P1;PMS_P2;Temp;Humidity;BMP_temperature;BMP_pressure;BME280_temperature;BME280_humidity;BME280_pressure;Samples;Min_cycle;Max_cycle;Signal;HPM_P1;HPM_P2
2023/06/05 00:00:46;;;;;;;4.28;3.88;;;15.70;59.60;;;;;;5003931;28;20056;-61
2023/06/05 00:03:12;;;;;;;5.45;4.30;;;15.60;59.90;;;;;;5006532;28;20042;-61
2023/06/05 00:05:37;;;;;;;4.10;3.72;;;15.50;60.10;;;;;;5005323;28;20045;-61
2023/06/05 00:08:03;;;;;;;5.63;3.92;;;15.50;60.30;;;;;;4982788;28;20529;-62
2023/06/05 00:10:28;;;;;;;5.00;4.22;;;15.40;60.40;;;;;;5004718;28;20054;-62
2023/06/05 00:12:54;;;;;;;4.22;3.83;;;15.30;60.50;;;;;;5002141;28;20117;-61
2023/06/05 00:15:20;;;;;;;4.95;4.05;;;15.30;60.60;;;;;;5002682;28;20026;-61
2023/06/05 00:17:47;;;;;;;4.90;3.90;;;15.20;60.70;;;;;;5004475;28;20141;-62
2023/06/05 00:20:12;;;;;;;5.80;4.32;;;15.20;60.90;;;;;;5006341;28;20067;-61
2023/06/05 00:22:38;;;;;;;4.88;4.05;;;15.20;61.00;;;;;;5001068;28;20113;-61
2023/06/05 00:25:05;;;;;;;5.50;4.28;;;15.10;61.10;;;;;;5002766;28;20129;-62
2023/06/05 00:27:31;;;;;;;4.50;3.85;;;15.10;61.20;;;;;;4982697;28;20088;-61
2023/06/05 00:29:56;;;;;;;7.00;4.35;;;15.10;61.30;;;;;;5007042;28;20401;-61
2023/06/05 00:32:22;;;;;;;5.65;3.90;;;15.10;61.50;;;;;;5008290;28;20038;-61
2023/06/05 00:34:49;;;;;;;5.22;4.45;;;15.10;61.70;;;;;;5006334;28;20049;-62
2023/06/05 00:37:15;;;;;;;5.55;3.90;;;15.00;61.70;;;;;;5001865;28;20069;-61
2023/06/05 00:39:41;;;;;;;5.38;4.13;;;15.00;62.00;;;;;;5000229;28;20557;-60
2023/06/05 00:42:08;;;;;;;5.53;3.97;;;14.90;62.20;;;;;;5000959;28;20620;-62
2023/06/05 00:44:34;;;;;;;5.40;3.75;;;14.80;62.20;;;;;;4999262;28;20113;-61
2023/06/05 00:47:00;;;;;;;4.80;4.20;;;14.80;62.20;;;;;;5002935;28;20108;-62
2023/06/05 00:49:27;;;;;;;5.55;4.07;;;14.80;62.30;;;;;;5000482;28;20034;-61
2023/06/05 00:51:53;;;;;;;6.13;4.40;;;14.80;62.40;;;;;;5003582;28;20041;-61
2023/06/05 00:54:20;;;;;;;4.90;4.00;;;14.80;62.40;;;;;;5001300;28;20046;-61
2023/06/05 00:56:47;;;;;;;4.95;4.13;;;14.70;62.40;;;;;;5001026;28;20124;-61
2023/06/05 00:59:13;;;;;;;5.50;3.78;;;14.70;62.60;;;;;;4999905;28;20121;-61
2023/06/05 01:01:40;;;;;;;6.15;4.35;;;14.60;62.70;;;;;;5002770;28;20199;-62
2023/06/05 01:04:06;;;;;;;8.15;4.63;;;14.60;62.90;;;;;;5000789;28;20037;-61
2023/06/05 01:06:33;;;;;;;4.45;4.05;;;14.50;63.00;;;;;;5002052;28;20227;-62
2023/06/05 01:09:00;;;;;;;6.57;4.07;;;14.40;63.10;;;;;;5002720;28;20124;-61
2023/06/05 01:11:25;;;;;;;6.75;4.22;;;14.40;63.10;;;;;;5000617;28;20228;-61
2023/06/05 01:14:02;;;;;;;6.07;4.28;;;14.30;63.30;;;;;;4999849;28;20026;-62
2023/06/05 01:16:32;;;;;;;6.20;4.35;;;14.30;64.10;;;;;;4999729;28;20485;-62
2023/06/05 01:19:02;;;;;;;6.13;4.30;;;14.30;63.60;;;;;;5002958;28;20030;-61
2023/06/05 01:21:32;;;;;;;6.75;4.25;;;14.20;64.10;;;;;;5006876;28;20477;-61
2023/06/05 01:23:58;;;;;;;7.60;4.35;;;14.10;64.00;;;;;;5001681;28;20505;-61
2023/06/05 01:26:42;;;;;;;5.45;4.18;;;14.10;63.70;;;;;;5002904;28;20038;-61
2023/06/05 01:29:14;;;;;;;5.10;4.32;;;14.10;64.00;;;;;;5005214;28;20516;-61
2023/06/05 01:31:44;;;;;;;5.13;4.15;;;14.20;63.80;;;;;;5006532;28;20030;-61
2023/06/05 01:34:12;;;;;;;4.93;4.38;;;14.10;63.80;;;;;;5001867;28;20041;-60
2023/06/05 01:36:40;;;;;;;4.43;4.00;;;14.10;63.80;;;;;;4999025;28;20037;-62
2023/06/05 01:39:07;;;;;;;6.18;4.35;;;14.20;63.80;;;;;;4998952;28;20046;-62
2023/06/05 01:41:33;;;;;;;5.25;4.40;;;14.20;63.80;;;;;;4998911;28;20038;-61
2023/06/05 01:44:00;;;;;;;8.30;4.50;;;14.20;63.80;;;;;;4999822;28;20414;-60
2023/06/05 01:46:26;;;;;;;5.63;4.65;;;14.30;63.90;;;;;;4999027;28;20564;-61
2023/06/05 01:48:54;;;;;;;4.68;4.20;;;14.20;63.80;;;;;;5001575;28;20045;-61
2023/06/05 01:51:19;;;;;;;5.55;4.43;;;14.10;63.80;;;;;;4998805;28;20065;-62
2023/06/05 01:53:48;;;;;;;8.50;4.60;;;14.10;63.80;;;;;;4999579;28;20133;-61
2023/06/05 01:56:19;;;;;;;6.82;4.50;;;14.10;64.00;;;;;;5001390;28;20503;-62
2023/06/05 01:58:46;;;;;;;6.00;5.15;;;14.00;64.00;;;;;;4997273;28;20049;-61
2023/06/05 02:01:12;;;;;;;6.20;4.30;;;13.90;64.00;;;;;;4999472;28;20035;-62
2023/06/05 02:03:37;;;;;;;7.63;5.20;;;13.90;64.20;;;;;;5000319;28;20034;-61
2023/06/05 02:06:03;;;;;;;6.63;4.57;;;13.80;64.30;;;;;;5000804;28;20033;-62
2023/06/05 02:08:29;;;;;;;6.88;4.63;;;13.80;64.50;;;;;;4998715;28;20115;-60
2023/06/05 02:10:54;;;;;;;6.65;5.10;;;13.70;64.60;;;;;;5000777;28;20026;-61
2023/06/05 02:13:22;;;;;;;7.10;4.85;;;13.70;64.80;;;;;;5000232;28;20410;-61
2023/06/05 02:15:52;;;;;;;9.57;5.40;;;13.60;64.90;;;;;;4999999;28;21120;-62
2023/06/05 02:18:17;;;;;;;8.23;5.28;;;13.60;65.00;;;;;;4998415;28;20093;-61
2023/06/05 02:20:43;;;;;;;6.45;4.78;;;13.50;65.10;;;;;;5000612;28;20454;-61
2023/06/05 02:23:09;;;;;;;5.88;5.10;;;13.50;65.20;;;;;;4998996;28;20038;-61
2023/06/05 02:25:34;;;;;;;6.78;4.63;;;13.50;65.50;;;;;;4999008;28;20046;-61
2023/06/05 02:28:00;;;;;;;6.00;4.57;;;13.40;66.40;;;;;;5006434;28;20080;-61
2023/06/05 02:30:26;;;;;;;36.20;5.50;;;13.30;65.70;;;;;;5004656;28;20084;-61
2023/06/05 02:33:00;;;;;;;8.18;5.10;;;13.30;65.90;;;;;;5005801;28;20034;-61
2023/06/05 02:35:26;;;;;;;5.73;4.80;;;13.30;66.10;;;;;;5002795;28;20618;-61
2023/06/05 02:37:52;;;;;;;7.47;4.78;;;13.20;66.10;;;;;;4998792;28;20030;-61
2023/06/05 02:40:17;;;;;;;7.30;5.18;;;13.20;66.20;;;;;;4998760;28;20658;-60
2023/06/05 02:42:43;;;;;;;6.13;4.45;;;13.20;66.30;;;;;;5000940;28;20491;-64
2023/06/05 02:45:09;;;;;;;5.20;4.68;;;13.20;66.50;;;;;;5000540;28;20124;-62
2023/06/05 02:47:35;;;;;;;5.97;4.43;;;13.10;66.60;;;;;;5000102;28;20493;-62
2023/06/05 02:50:01;;;;;;;7.13;4.53;;;13.10;66.80;;;;;;5000936;28;20125;-62
2023/06/05 02:52:34;;;;;;;5.93;4.90;;;13.00;66.90;;;;;;4999666;28;20045;-63
2023/06/05 02:55:01;;;;;;;8.50;5.20;;;13.00;66.90;;;;;;4998244;28;20037;-63
2023/06/05 02:57:26;;;;;;;6.65;4.78;;;13.00;67.10;;;;;;4998381;28;20524;-63
2023/06/05 02:59:52;;;;;;;5.95;5.10;;;13.00;67.10;;;;;;4998074;28;20034;-63
2023/06/05 03:02:18;;;;;;;6.03;5.07;;;13.00;67.30;;;;;;4998378;28;20572;-63
2023/06/05 03:04:43;;;;;;;10.00;4.85;;;12.90;67.40;;;;;;4996971;28;20033;-62
2023/06/05 03:07:09;;;;;;;6.03;4.72;;;12.90;67.40;;;;;;5001722;28;20176;-63
2023/06/05 03:09:36;;;;;;;5.32;4.63;;;12.90;67.60;;;;;;4999214;28;20053;-63
2023/06/05 03:12:02;;;;;;;8.20;5.10;;;12.90;67.50;;;;;;4999131;28;20034;-63
2023/06/05 03:14:27;;;;;;;7.40;5.20;;;12.80;67.50;;;;;;4999785;28;20417;-63
2023/06/05 03:16:53;;;;;;;6.38;4.60;;;12.80;67.60;;;;;;4998008;28;20045;-64
2023/06/05 03:19:19;;;;;;;5.68;4.47;;;12.80;67.70;;;;;;4997896;28;20490;-61
2023/06/05 03:21:45;;;;;;;8.43;5.00;;;12.80;67.80;;;;;;5005105;28;20121;-62
2023/06/05 03:24:15;;;;;;;6.82;5.32;;;12.80;67.90;;;;;;4999869;28;20042;-63
2023/06/05 03:26:42;;;;;;;5.47;4.72;;;12.70;68.00;;;;;;4998652;28;20042;-62
2023/06/05 03:29:09;;;;;;;5.60;4.60;;;12.70;68.00;;;;;;5001886;28;20464;-62
2023/06/05 03:31:35;;;;;;;6.68;4.88;;;12.70;68.30;;;;;;5005659;28;20064;-63
2023/06/05 03:34:02;;;;;;;6.47;4.97;;;12.70;68.50;;;;;;4998660;28;20476;-63
2023/06/05 03:36:28;;;;;;;6.10;4.68;;;12.60;69.30;;;;;;4999639;28;20045;-62
2023/06/05 03:38:57;;;;;;;5.80;5.13;;;12.60;68.60;;;;;;5000024;28;20045;-63
2023/06/05 03:41:23;;;;;;;6.60;4.75;;;12.60;69.00;;;;;;4998739;28;20033;-64
2023/06/05 03:43:51;;;;;;;5.90;5.03;;;12.50;68.80;;;;;;4999000;28;20037;-63
2023/06/05 03:46:19;;;;;;;6.55;4.97;;;12.60;69.00;;;;;;4998550;28;20042;-63
2023/06/05 03:48:46;;;;;;;6.05;4.70;;;12.60;69.00;;;;;;4997538;28;20114;-61
2023/06/05 03:51:11;;;;;;;7.35;5.28;;;12.60;69.20;;;;;;4980223;28;20038;-62
2023/06/05 03:53:39;;;;;;;6.10;5.10;;;12.60;69.20;;;;;;5002266;28;20034;-62
2023/06/05 03:56:06;;;;;;;6.85;5.00;;;12.60;69.30;;;;;;5005235;28;20505;-63
2023/06/05 03:58:32;;;;;;;8.07;4.70;;;12.60;69.30;;;;;;5001346;28;20045;-63
2023/06/05 04:00:58;;;;;;;6.18;4.70;;;12.70;69.40;;;;;;5001072;28;20565;-62
2023/06/05 04:03:25;;;;;;;6.30;4.88;;;12.70;69.40;;;;;;5000195;28;20607;-62
2023/06/05 04:05:50;;;;;;;6.22;4.75;;;12.70;69.40;;;;;;5001162;28;20030;-62
2023/06/05 04:08:16;;;;;;;7.30;4.80;;;12.80;69.50;;;;;;5002681;28;20047;-63
2023/06/05 04:10:42;;;;;;;5.97;4.50;;;12.80;69.70;;;;;;5002922;28;20061;-63
2023/06/05 04:13:07;;;;;;;6.75;5.10;;;12.80;69.50;;;;;;5004867;28;20501;-63
2023/06/05 04:15:33;;;;;;;6.90;4.63;;;12.80;69.30;;;;;;4984001;28;20501;-63
2023/06/05 04:17:59;;;;;;;6.28;4.82;;;12.90;69.50;;;;;;5003030;28;20045;-63
2023/06/05 04:20:25;;;;;;;6.00;4.55;;;12.90;69.40;;;;;;5001410;28;20121;-62
2023/06/05 04:22:50;;;;;;;7.50;4.78;;;13.00;69.30;;;;;;5001076;28;20480;-63
2023/06/05 04:25:16;;;;;;;9.25;4.47;;;13.00;69.30;;;;;;5001450;28;20049;-63
2023/06/05 04:27:48;;;;;;;6.53;4.65;;;13.10;69.30;;;;;;5001474;28;20033;-65
2023/06/05 04:30:14;;;;;;;6.68;4.75;;;13.10;69.70;;;;;;4999654;28;20037;-63
2023/06/05 04:32:41;;;;;;;6.55;4.40;;;13.20;69.30;;;;;;5001669;28;20555;-62
2023/06/05 04:35:08;;;;;;;9.32;4.70;;;13.20;69.30;;;;;;5000855;28;20048;-63
2023/06/05 04:37:38;;;;;;;6.57;4.70;;;13.20;69.40;;;;;;5000601;28;20040;-63
2023/06/05 04:40:05;;;;;;;5.20;4.70;;;13.30;69.30;;;;;;5004257;28;20037;-63
2023/06/05 04:42:36;;;;;;;6.50;4.50;;;13.30;69.20;;;;;;4998813;28;20046;-62
2023/06/05 04:45:04;;;;;;;8.40;4.60;;;13.40;69.40;;;;;;5000268;28;20030;-63
2023/06/05 04:47:30;;;;;;;5.05;4.55;;;13.50;69.40;;;;;;5001763;28;20467;-63
2023/06/05 04:50:00;;;;;;;5.93;4.93;;;13.60;69.40;;;;;;4999681;28;20037;-61
2023/06/05 04:52:29;;;;;;;7.28;4.70;;;13.70;69.60;;;;;;5000895;28;20038;-64
2023/06/05 04:54:55;;;;;;;8.10;4.50;;;13.80;69.50;;;;;;5002376;28;20040;-63
2023/06/05 04:57:20;;;;;;;5.75;4.75;;;13.90;69.50;;;;;;5002165;28;20038;-63
2023/06/05 04:59:46;;;;;;;9.73;4.90;;;13.90;69.50;;;;;;5003331;28;20060;-63
2023/06/05 05:02:12;;;;;;;5.30;4.32;;;14.00;69.50;;;;;;5002064;28;20030;-62
2023/06/05 05:04:38;;;;;;;8.13;4.50;;;14.10;69.40;;;;;;4983565;28;20100;-63
2023/06/05 05:07:05;;;;;;;6.07;4.05;;;14.10;69.30;;;;;;5003049;28;20037;-63
2023/06/05 05:09:31;;;;;;;6.32;4.15;;;14.30;69.10;;;;;;5002319;28;20038;-62
2023/06/05 05:11:57;;;;;;;8.85;4.60;;;14.40;68.90;;;;;;5004574;28;20036;-62
2023/06/05 05:14:27;;;;;;;5.28;4.00;;;14.50;68.50;;;;;;5003312;28;20034;-63
2023/06/05 05:16:53;;;;;;;6.53;3.80;;;14.60;68.20;;;;;;4999448;28;20552;-63
2023/06/05 05:19:19;;;;;;;6.60;3.63;;;14.70;67.50;;;;;;5001289;28;20042;-63
2023/06/05 05:21:46;;;;;;;8.73;4.00;;;14.80;66.70;;;;;;5002054;28;20061;-62
2023/06/05 05:24:12;;;;;;;5.63;3.90;;;14.90;66.50;;;;;;5000212;28;20030;-63
2023/06/05 05:26:39;;;;;;;7.25;4.22;;;15.00;67.10;;;;;;5004359;28;20038;-63
2023/06/05 05:29:08;;;;;;;5.65;4.15;;;15.10;65.90;;;;;;5001977;28;20041;-63
2023/06/05 05:31:34;;;;;;;4.90;3.90;;;15.10;65.60;;;;;;5005942;28;20081;-62
2023/06/05 05:34:00;;;;;;;7.47;3.92;;;15.20;65.50;;;;;;5000393;28;20515;-64
2023/06/05 05:36:26;;;;;;;4.35;3.65;;;15.30;65.30;;;;;;4999939;28;20042;-63
2023/06/05 05:38:52;;;;;;;10.23;4.15;;;15.40;65.20;;;;;;4999028;28;20046;-63
2023/06/05 05:41:18;;;;;;;4.88;4.13;;;15.50;65.00;;;;;;5002312;28;20042;-63
2023/06/05 05:43:44;;;;;;;7.68;4.53;;;15.60;64.70;;;;;;5003152;28;20041;-63
2023/06/05 05:46:10;;;;;;;5.50;4.38;;;15.60;64.50;;;;;;5000696;28;20038;-62
2023/06/05 05:48:36;;;;;;;5.38;4.18;;;15.70;65.50;;;;;;4999878;28;20440;-62
2023/06/05 05:51:01;;;;;;;7.47;4.43;;;15.80;64.70;;;;;;5002450;28;20501;-62
2023/06/05 05:53:30;;;;;;;6.43;3.90;;;15.80;64.60;;;;;;4998571;28;20034;-63
2023/06/05 05:55:56;;;;;;;5.40;4.20;;;16.00;64.70;;;;;;5000947;28;20034;-63
2023/06/05 05:58:21;;;;;;;5.20;3.90;;;16.10;64.40;;;;;;5002435;28;20453;-62
2023/06/05 06:00:47;;;;;;;4.75;4.00;;;16.20;64.10;;;;;;4999138;28;20128;-62
2023/06/05 06:03:14;;;;;;;4.82;4.07;;;16.30;63.80;;;;;;5000984;28;20390;-62
2023/06/05 06:05:40;;;;;;;4.85;4.10;;;16.50;64.10;;;;;;5001122;28;20434;-61
2023/06/05 06:08:06;;;;;;;4.78;3.80;;;16.60;63.30;;;;;;4995842;28;20040;-62
2023/06/05 06:10:33;;;;;;;6.35;4.25;;;16.70;63.00;;;;;;5000594;28;20030;-62
2023/06/05 06:12:59;;;;;;;5.55;3.50;;;16.80;62.70;;;;;;5001196;28;20030;-63
2023/06/05 06:15:25;;;;;;;4.13;3.72;;;16.80;62.70;;;;;;4997653;28;20238;-63
2023/06/05 06:17:50;;;;;;;5.68;4.25;;;16.90;62.60;;;;;;4999356;28;20038;-62
2023/06/05 06:20:16;;;;;;;6.82;4.28;;;17.00;62.20;;;;;;4999053;28;20072;-63
2023/06/05 06:22:42;;;;;;;5.00;3.80;;;17.10;61.90;;;;;;4998121;28;20041;-63
2023/06/05 06:25:10;;;;;;;4.10;3.65;;;17.20;62.00;;;;;;4999144;28;20572;-62
2023/06/05 06:27:37;;;;;;;6.00;3.92;;;17.30;62.00;;;;;;5000211;28;20033;-63
2023/06/05 06:30:03;;;;;;;4.53;3.70;;;17.30;62.00;;;;;;4996514;28;20413;-63
2023/06/05 06:32:34;;;;;;;10.15;4.03;;;17.40;62.20;;;;;;4986758;28;20029;-64
2023/06/05 06:35:00;;;;;;;5.10;3.92;;;17.50;62.30;;;;;;5001215;28;20032;-63
2023/06/05 06:37:26;;;;;;;5.97;3.67;;;17.60;62.20;;;;;;4997594;28;20499;-62
2023/06/05 06:39:54;;;;;;;7.68;4.05;;;17.70;62.10;;;;;;4976312;28;20034;-62
2023/06/05 06:42:23;;;;;;;6.55;4.07;;;17.80;62.10;;;;;;4996310;28;20022;-62
2023/06/05 06:44:55;;;;;;;8.02;4.05;;;17.90;62.00;;;;;;4993345;28;20077;-63
2023/06/05 06:47:25;;;;;;;5.20;3.72;;;18.00;62.20;;;;;;4994706;28;20069;-63
2023/06/05 06:49:51;;;;;;;4.50;4.07;;;18.10;62.20;;;;;;4996837;28;20092;-63
2023/06/05 06:52:18;;;;;;;4.95;4.18;;;18.20;62.30;;;;;;4997671;28;20049;-63
2023/06/05 06:54:44;;;;;;;5.32;3.85;;;18.30;62.10;;;;;;4994510;28;20037;-63
2023/06/05 06:57:10;;;;;;;5.78;4.20;;;18.40;62.00;;;;;;4996990;28;20061;-63
2023/06/05 06:59:35;;;;;;;4.75;4.13;;;18.50;62.00;;;;;;4997234;28;20037;-62
2023/06/05 07:02:13;;;;;;;4.65;4.25;;;18.60;61.90;;;;;;4991578;28;20026;-63
2023/06/05 07:04:41;;;;;;;5.45;4.15;;;18.80;62.20;;;;;;4996275;28;20038;-62
2023/06/05 07:07:10;;;;;;;6.45;4.00;;;18.80;61.80;;;;;;4994693;28;20037;-63
2023/06/05 07:09:36;;;;;;;4.35;3.88;;;18.90;61.70;;;;;;4989445;28;20068;-61
2023/06/05 07:12:04;;;;;;;5.60;4.57;;;19.00;61.70;;;;;;4990972;28;20498;-62
2023/06/05 07:14:31;;;;;;;5.32;4.22;;;19.10;61.60;;;;;;4996027;28;20034;-61
2023/06/05 07:16:59;;;;;;;5.07;4.00;;;19.20;61.30;;;;;;4998481;28;20057;-63
2023/06/05 07:19:28;;;;;;;5.63;4.25;;;19.40;61.30;;;;;;4999293;28;20057;-63
2023/06/05 07:21:56;;;;;;;5.05;4.45;;;19.40;61.10;;;;;;4995710;28;20030;-62
2023/06/05 07:24:24;;;;;;;5.15;4.65;;;19.60;61.00;;;;;;4987963;28;20046;-62
2023/06/05 07:26:51;;;;;;;5.60;5.00;;;19.70;60.70;;;;;;4995430;28;20042;-62
2023/06/05 07:29:18;;;;;;;5.15;4.60;;;19.60;60.60;;;;;;4998518;28;20302;-62
2023/06/05 07:31:44;;;;;;;6.53;4.22;;;19.70;60.60;;;;;;4998580;28;20037;-63
2023/06/05 07:34:09;;;;;;;4.47;4.05;;;19.80;60.40;;;;;;5000527;28;20041;-62
2023/06/05 07:36:36;;;;;;;5.07;4.57;;;19.90;60.30;;;;;;4999780;28;20552;-62
2023/06/05 07:39:02;;;;;;;6.32;4.90;;;20.00;60.40;;;;;;5003164;28;20038;-62
2023/06/05 07:41:27;;;;;;;10.13;5.00;;;20.00;60.10;;;;;;5000387;28;20045;-61
2023/06/05 07:43:53;;;;;;;6.88;5.00;;;20.10;59.80;;;;;;5003794;28;20107;-62
2023/06/05 07:46:18;;;;;;;5.60;4.68;;;20.10;60.00;;;;;;5004127;28;20044;-62
2023/06/05 07:48:44;;;;;;;5.72;4.55;;;20.20;60.10;;;;;;5004911;28;20061;-62
2023/06/05 07:51:10;;;;;;;5.35;4.85;;;20.20;60.30;;;;;;5003587;28;20045;-62
2023/06/05 07:53:36;;;;;;;5.97;5.00;;;20.20;60.60;;;;;;5005114;28;20129;-62
2023/06/05 07:56:02;;;;;;;6.47;4.90;;;20.30;60.80;;;;;;4980841;28;20034;-62
2023/06/05 07:58:29;;;;;;;5.75;4.93;;;20.40;60.80;;;;;;5001732;28;20038;-62
2023/06/05 08:00:56;;;;;;;7.00;5.00;;;20.50;60.70;;;;;;4997586;28;20100;-62
2023/06/05 08:03:23;;;;;;;6.00;4.57;;;20.60;61.00;;;;;;4995847;28;20486;-63
2023/06/05 08:05:51;;;;;;;5.15;4.57;;;20.70;60.80;;;;;;4999590;28;20046;-62
2023/06/05 08:08:17;;;;;;;5.55;4.78;;;20.80;60.80;;;;;;5007077;28;20513;-63
2023/06/05 08:10:44;;;;;;;7.70;4.72;;;20.90;60.60;;;;;;5005254;28;20036;-62
2023/06/05 08:13:10;;;;;;;7.97;4.82;;;21.00;60.10;;;;;;5007132;28;20120;-63
2023/06/05 08:15:36;;;;;;;6.60;4.43;;;21.20;59.70;;;;;;5007884;28;20093;-62
2023/06/05 08:18:02;;;;;;;4.68;4.25;;;21.30;59.50;;;;;;5007419;28;20038;-62
2023/06/05 08:20:28;;;;;;;5.13;4.60;;;21.40;59.60;;;;;;5006204;28;20048;-63
2023/06/05 08:22:57;;;;;;;6.40;4.25;;;21.60;59.00;;;;;;5007229;28;20042;-60
2023/06/05 08:25:26;;;;;;;5.43;4.60;;;21.70;58.90;;;;;;5006475;28;20088;-60
2023/06/05 08:27:52;;;;;;;8.63;4.78;;;21.90;58.70;;;;;;5008155;28;20030;-62
2023/06/05 08:30:19;;;;;;;4.85;4.43;;;22.00;58.40;;;;;;5007064;28;20111;-60
2023/06/05 08:32:45;;;;;;;4.75;4.25;;;22.10;58.10;;;;;;5006470;28;20038;-64
2023/06/05 08:35:12;;;;;;;31.60;6.10;;;22.20;58.00;;;;;;5005493;28;20049;-63
2023/06/05 08:37:37;;;;;;;6.53;4.65;;;22.30;57.70;;;;;;4985505;28;20088;-64
2023/06/05 08:40:06;;;;;;;4.63;4.22;;;22.40;57.40;;;;;;5007414;28;20034;-63
2023/06/05 08:42:32;;;;;;;5.45;3.80;;;22.50;57.20;;;;;;5004717;28;20038;-64
2023/06/05 08:44:58;;;;;;;5.22;4.28;;;22.60;57.20;;;;;;5008559;28;20121;-64
2023/06/05 08:47:28;;;;;;;5.15;4.18;;;22.70;57.00;;;;;;5007206;28;20113;-64
2023/06/05 08:49:54;;;;;;;4.03;3.72;;;22.80;56.80;;;;;;5006205;28;20302;-64
2023/06/05 08:52:22;;;;;;;4.32;3.92;;;22.90;56.70;;;;;;5006031;28;20076;-64
2023/06/05 08:54:49;;;;;;;5.63;3.80;;;23.00;56.30;;;;;;5006240;28;20041;-64
2023/06/05 08:57:15;;;;;;;5.28;3.95;;;23.10;56.10;;;;;;5007478;28;20037;-63
2023/06/05 08:59:41;;;;;;;6.90;4.43;;;23.20;55.70;;;;;;5006959;28;20383;-64
2023/06/05 09:02:09;;;;;;;6.25;4.57;;;23.30;55.30;;;;;;5005400;28;20441;-64
2023/06/05 09:04:34;;;;;;;6.43;4.28;;;23.40;55.40;;;;;;5006953;28;20084;-63
2023/06/05 09:07:00;;;;;;;4.82;3.88;;;23.40;54.80;;;;;;5007790;28;20544;-63
2023/06/05 09:09:26;;;;;;;6.22;5.00;;;23.50;55.50;;;;;;5006162;28;20038;-64
2023/06/05 09:12:08;;;;;;;8.88;4.00;;;23.60;54.80;;;;;;5006800;28;20041;-63
2023/06/05 09:14:35;;;;;;;5.25;3.83;;;23.60;54.50;;;;;;5005352;28;20044;-64
2023/06/05 09:17:02;;;;;;;4.68;3.90;;;23.70;54.50;;;;;;5005970;28;20058;-63
2023/06/05 09:19:38;;;;;;;5.25;4.07;;;23.70;54.40;;;;;;5003623;28;20257;-62
2023/06/05 09:22:05;;;;;;;6.57;3.83;;;23.80;53.80;;;;;;5002930;28;20494;-63
2023/06/05 09:24:31;;;;;;;4.10;3.70;;;23.90;53.90;;;;;;5005258;28;20034;-63
2023/06/05 09:27:08;;;;;;;6.85;3.42;;;24.10;53.70;;;;;;5003447;28;20037;-64
2023/06/05 09:29:38;;;;;;;4.50;3.78;;;24.10;53.20;;;;;;5004182;28;20045;-64
2023/06/05 09:32:06;;;;;;;25.67;4.20;;;24.20;53.10;;;;;;5006970;28;20038;-64
2023/06/05 09:34:36;;;;;;;6.53;3.60;;;24.30;52.80;;;;;;5004089;28;20064;-63
2023/06/05 09:37:04;;;;;;;4.32;3.90;;;24.40;52.00;;;;;;5005563;28;20041;-64
2023/06/05 09:39:33;;;;;;;5.00;3.63;;;24.40;51.60;;;;;;4999742;28;20564;-65
2023/06/05 09:41:59;;;;;;;5.47;3.85;;;24.50;51.90;;;;;;5005453;28;20034;-64
2023/06/05 09:44:26;;;;;;;6.25;3.33;;;24.50;51.90;;;;;;5004244;28;20693;-64
2023/06/05 09:46:56;;;;;;;3.67;3.35;;;24.50;51.70;;;;;;5002179;28;20041;-64
2023/06/05 09:49:27;;;;;;;5.25;3.28;;;24.60;51.90;;;;;;5001629;28;20144;-64
2023/06/05 09:51:54;;;;;;;5.55;3.38;;;24.70;51.50;;;;;;5001115;28;20045;-64
2023/06/05 09:54:22;;;;;;;4.85;3.78;;;24.80;51.40;;;;;;5002757;28;20033;-64
2023/06/05 09:56:51;;;;;;;4.03;3.50;;;24.90;50.20;;;;;;5002152;28;20049;-64
2023/06/05 09:59:21;;;;;;;3.90;3.58;;;25.00;50.70;;;;;;4999851;28;20260;-64
2023/06/05 10:01:50;;;;;;;6.93;3.35;;;25.10;50.70;;;;;;4998510;28;20042;-64
2023/06/05 10:04:18;;;;;;;5.32;3.17;;;25.10;50.40;;;;;;4998571;28;20042;-64
2023/06/05 10:06:46;;;;;;;4.53;3.75;;;25.10;50.40;;;;;;5003599;28;20037;-64
2023/06/05 10:09:13;;;;;;;7.50;4.05;;;25.30;50.30;;;;;;5003255;28;20048;-63
2023/06/05 10:11:40;;;;;;;4.47;3.42;;;25.30;49.80;;;;;;5003633;28;20517;-64
2023/06/05 10:14:08;;;;;;;4.13;3.55;;;25.40;49.90;;;;;;4988350;28;20038;-64
2023/06/05 10:16:34;;;;;;;4.03;3.63;;;25.40;49.10;;;;;;5005170;28;20116;-64
2023/06/05 10:19:00;;;;;;;4.38;3.30;;;25.50;49.00;;;;;;5005784;28;20625;-64
2023/06/05 10:21:26;;;;;;;4.00;3.25;;;25.60;48.40;;;;;;5006408;28;20480;-64
2023/06/05 10:23:59;;;;;;;3.08;2.80;;;25.50;48.10;;;;;;4995393;28;20406;-64
2023/06/05 10:27:01;;;;;;;3.08;2.88;;;25.50;48.30;;;;;;5005347;28;20065;-63
2023/06/05 10:29:43;;;;;;;3.20;2.90;;;25.60;47.10;;;;;;5005488;28;20056;-64
2023/06/05 10:32:28;;;;;;;3.88;3.08;;;25.60;47.60;;;;;;5006170;28;20038;-64
2023/06/05 10:35:32;;;;;;;2.92;2.72;;;25.60;47.30;;;;;;5005794;28;20161;-64
2023/06/05 10:38:14;;;;;;;3.67;2.90;;;25.60;46.90;;;;;;4936829;28;20446;-64
2023/06/05 10:40:39;;;;;;;5.00;3.08;;;25.60;46.60;;;;;;4938595;28;20027;-64
2023/06/05 10:43:26;;;;;;;6.68;3.10;;;25.60;46.40;;;;;;4978224;28;20071;-64
2023/06/05 10:45:53;;;;;;;3.55;3.25;;;25.60;46.00;;;;;;5005124;28;20026;-64
2023/06/05 10:48:18;;;;;;;3.80;2.88;;;25.60;46.60;;;;;;5006953;28;20053;-64
2023/06/05 10:50:44;;;;;;;3.17;2.88;;;25.60;46.10;;;;;;5004298;28;20034;-64
2023/06/05 10:53:42;;;;;;;3.20;2.60;;;25.70;46.20;;;;;;5006163;28;20026;-64
2023/06/05 10:56:08;;;;;;;5.60;2.65;;;25.70;45.70;;;;;;5004521;28;20056;-64
2023/06/05 10:58:33;;;;;;;3.10;2.65;;;25.80;46.30;;;;;;5006561;28;20513;-64
2023/06/05 11:01:18;;;;;;;3.35;3.05;;;25.80;46.00;;;;;;5008022;28;20037;-64
2023/06/05 11:03:59;;;;;;;2.88;2.63;;;25.90;44.80;;;;;;4985949;28;20405;-64
2023/06/05 11:06:26;;;;;;;3.15;2.85;;;26.00;45.50;;;;;;5006938;28;20049;-63
2023/06/05 11:09:12;;;;;;;4.70;2.83;;;26.10;45.80;;;;;;5008597;28;20571;-64
2023/06/05 11:12:01;;;;;;;3.83;2.63;;;26.20;44.40;;;;;;5007850;28;20041;-64
2023/06/05 11:14:47;;;;;;;4.20;2.90;;;26.30;43.60;;;;;;5009172;28;20038;-64
2023/06/05 11:17:32;;;;;;;5.10;3.00;;;26.30;41.80;;;;;;5010159;28;20446;-64
2023/06/05 11:19:59;;;;;;;3.13;2.70;;;26.30;42.30;;;;;;5007997;28;20456;-64
2023/06/05 11:22:26;;;;;;;2.85;2.38;;;26.20;42.90;;;;;;5008377;28;20095;-64
2023/06/05 11:25:13;;;;;;;5.82;2.80;;;26.20;43.20;;;;;;5008801;28;20490;-64
2023/06/05 11:27:46;;;;;;;3.17;2.80;;;26.20;42.50;;;;;;5004323;28;20034;-64
2023/06/05 11:30:13;;;;;;;6.38;3.00;;;26.20;42.20;;;;;;5007808;28;20449;-63
2023/06/05 11:32:38;;;;;;;3.15;2.80;;;26.20;43.30;;;;;;5004965;28;20061;-63
2023/06/05 11:35:05;;;;;;;3.83;2.80;;;26.20;43.10;;;;;;5009459;28;20513;-64
2023/06/05 11:37:32;;;;;;;3.40;2.92;;;26.30;42.90;;;;;;5010786;28;20026;-64
2023/06/05 11:39:58;;;;;;;3.63;2.90;;;26.30;42.90;;;;;;4987357;28;20683;-63
2023/06/05 11:42:24;;;;;;;3.00;2.80;;;26.40;42.00;;;;;;5009024;28;20030;-63
2023/06/05 11:44:49;;;;;;;3.53;2.72;;;26.40;42.40;;;;;;5008280;28;20030;-63
2023/06/05 11:47:28;;;;;;;4.82;3.20;;;26.40;41.90;;;;;;5007551;28;20604;-63
2023/06/05 11:49:53;;;;;;;3.63;3.05;;;26.50;39.50;;;;;;5007130;28;20051;-63
2023/06/05 11:52:23;;;;;;;3.67;2.85;;;26.40;40.50;;;;;;5007925;28;20042;-64
2023/06/05 11:55:05;;;;;;;3.22;2.92;;;26.40;41.70;;;;;;5005311;28;21289;-62
2023/06/05 11:57:44;;;;;;;3.53;3.22;;;26.40;41.70;;;;;;5006888;28;20037;-63
2023/06/05 12:00:11;;;;;;;3.22;2.95;;;26.40;40.00;;;;;;5001568;28;20162;-63
2023/06/05 12:02:37;;;;;;;3.50;2.78;;;26.30;41.20;;;;;;5004161;28;20513;-63
2023/06/05 12:05:05;;;;;;;3.88;2.83;;;26.30;41.60;;;;;;5004775;28;20037;-63
2023/06/05 12:07:36;;;;;;;3.53;2.53;;;26.20;41.60;;;;;;5005434;28;20117;-63
2023/06/05 12:10:03;;;;;;;6.15;2.78;;;26.30;42.00;;;;;;5004962;28;20497;-63
2023/06/05 12:12:29;;;;;;;3.28;2.97;;;26.40;41.70;;;;;;5003743;28;20041;-62
2023/06/05 12:14:56;;;;;;;5.13;2.80;;;26.40;41.00;;;;;;5001110;28;20061;-64
2023/06/05 12:17:22;;;;;;;7.78;3.40;;;26.50;41.00;;;;;;5003537;28;20068;-63
2023/06/05 12:19:54;;;;;;;3.47;2.83;;;26.50;40.80;;;;;;5005067;28;20022;-63
2023/06/05 12:22:20;;;;;;;4.00;3.20;;;26.60;39.50;;;;;;5006512;28;20104;-63
2023/06/05 12:24:46;;;;;;;2.70;2.50;;;26.60;39.40;;;;;;5003266;28;20061;-64
2023/06/05 12:27:12;;;;;;;3.03;2.72;;;26.60;39.80;;;;;;5005193;28;20037;-62
2023/06/05 12:29:51;;;;;;;3.65;2.85;;;26.60;40.00;;;;;;5004494;28;20069;-63
2023/06/05 12:32:24;;;;;;;6.80;2.70;;;26.60;40.10;;;;;;5002971;28;20078;-63
2023/06/05 12:34:51;;;;;;;5.38;2.72;;;26.70;39.90;;;;;;5006833;28;20124;-63
2023/06/05 12:37:29;;;;;;;3.13;2.90;;;26.70;40.10;;;;;;5007481;28;20476;-63
2023/06/05 12:39:56;;;;;;;5.13;3.40;;;26.80;39.00;;;;;;5004701;28;20026;-63
2023/06/05 12:42:21;;;;;;;3.40;3.13;;;26.90;38.10;;;;;;5007488;28;20038;-63
2023/06/05 12:44:47;;;;;;;3.88;2.80;;;26.80;38.10;;;;;;5004291;28;20725;-62
2023/06/05 12:47:13;;;;;;;3.00;2.70;;;26.80;38.40;;;;;;5000280;28;20045;-63
2023/06/05 12:49:38;;;;;;;3.38;3.00;;;26.80;38.50;;;;;;5002492;28;20073;-63